Time;durP1;ratioP1;P1;durP2;ratioP2;P2;SDS_P1;SDS_P2;PMS_P1;PMS_P2;Temp;Humidity;BMP_temperature;BMP_pressure;BME280_temperature;BME280_humidity;BME280_pressure;Samples;Min_cycle;Max_cycle;Signal;HPM_P1;HPM_P2
2022/01/07 00:00:05;;;;;;;2.60;1.60;;;;;;;18.74;56.03;100723.16;5051275;28;20461;-65
2022/01/07 00:02:31;;;;;;;2.40;1.50;;;;;;;18.75;56.06;100724.81;5047794;28;21019;-65
2022/01/07 00:04:56;;;;;;;3.30;1.73;;;;;;;18.73;55.99;100721.50;5068972;28;20414;-65
2022/01/07 00:07:22;;;;;;;2.67;1.67;;;;;;;18.75;55.97;100709.66;5050924;28;20831;-65
2022/01/07 00:09:47;;;;;;;3.50;1.90;;;;;;;18.75;56.01;100712.53;5068660;28;20163;-65
2022/01/07 00:12:13;;;;;;;3.13;1.80;;;;;;;18.71;56.14;100723.09;5066652;28;20229;-65
2022/01/07 00:14:38;;;;;;;3.30;2.00;;;;;;;18.76;55.80;100714.22;5050204;28;20195;-65
2022/01/07 00:17:04;;;;;;;2.33;1.43;;;;;;;18.74;55.93;100714.56;5052746;28;20194;-65
2022/01/07 00:19:29;;;;;;;3.57;1.97;;;;;;;18.73;56.02;100703.50;5068780;28;20630;-65
2022/01/07 00:21:54;;;;;;;4.53;2.27;;;;;;;18.70;55.99;100698.50;5069100;28;20178;-65
2022/01/07 00:24:20;;;;;;;2.93;1.67;;;;;;;18.72;55.82;100696.94;5068669;28;20252;-65
2022/01/07 00:26:45;;;;;;;3.20;1.60;;;;;;;18.72;55.99;100691.22;5068762;28;20170;-65
2022/01/07 00:29:11;;;;;;;3.07;1.90;;;;;;;18.68;56.12;100684.63;5069100;28;20167;-65
2022/01/07 00:31:36;;;;;;;3.43;1.83;;;;;;;18.71;56.00;100686.72;5051039;28;20182;-65
2022/01/07 00:34:02;;;;;;;2.90;1.80;;;;;;;18.67;56.21;100682.94;5053200;28;20188;-65
2022/01/07 00:36:27;;;;;;;3.67;2.23;;;;;;;18.78;55.78;100677.47;5048502;28;20195;-65
2022/01/07 00:38:52;;;;;;;2.80;1.73;;;;;;;18.73;55.80;100678.59;5048156;28;20207;-65
2022/01/07 00:41:18;;;;;;;3.20;2.03;;;;;;;18.68;56.39;100680.91;5048135;28;20191;-65
2022/01/07 00:43:43;;;;;;;2.80;1.70;;;;;;;18.74;55.63;100688.00;5048721;28;20238;-65
2022/01/07 00:46:09;;;;;;;2.73;1.47;;;;;;;18.70;55.83;100670.75;5047959;28;20186;-65
2022/01/07 00:48:34;;;;;;;4.07;1.83;;;;;;;18.69;56.16;100671.97;5050511;28;20189;-65
2022/01/07 00:51:00;;;;;;;2.70;1.60;;;;;;;18.65;56.10;100665.31;5054227;28;20551;-65
2022/01/07 00:53:25;;;;;;;3.10;1.97;;;;;;;18.72;55.81;100662.63;5067069;28;20183;-65
2022/01/07 00:55:50;;;;;;;2.60;1.70;;;;;;;18.69;55.73;100657.66;5071839;28;20198;-65
2022/01/07 00:58:16;;;;;;;3.20;1.83;;;;;;;18.68;55.97;100656.00;5071249;28;20179;-65
2022/01/07 01:00:41;;;;;;;3.23;1.93;;;;;;;18.65;56.17;100661.63;5053348;28;20272;-65
2022/01/07 01:03:07;;;;;;;2.77;1.90;;;;;;;18.66;56.13;100651.88;5054641;28;20178;-65
2022/01/07 01:05:32;;;;;;;3.27;1.70;;;;;;;18.65;56.28;100656.75;5054087;28;20183;-65
2022/01/07 01:07:58;;;;;;;3.60;1.80;;;;;;;18.66;55.99;100651.88;5071961;28;20757;-65
2022/01/07 01:10:26;;;;;;;3.80;2.00;;;;;;;18.63;55.99;100656.31;5037532;28;20711;-65
2022/01/07 01:12:52;;;;;;;2.40;1.60;;;;;;;18.68;55.85;100661.75;5072075;28;20171;-65
2022/01/07 01:15:21;;;;;;;3.87;2.03;;;;;;;18.66;55.95;100657.59;5068631;28;20810;-65
2022/01/07 01:17:47;;;;;;;3.50;1.53;;;;;;;18.66;56.01;100657.59;5053880;28;20421;-65
2022/01/07 01:20:13;;;;;;;2.70;1.40;;;;;;;18.65;56.11;100656.75;5054214;28;20508;-65
2022/01/07 01:22:39;;;;;;;3.47;1.93;;;;;;;18.66;55.92;100664.13;5071769;28;20518;-65
2022/01/07 01:25:05;;;;;;;3.27;1.80;;;;;;;18.64;56.03;100657.13;5071858;28;20183;-65
2022/01/07 01:27:30;;;;;;;2.80;1.83;;;;;;;18.66;56.26;100669.03;5071633;28;20174;-65
2022/01/07 01:29:56;;;;;;;2.40;1.70;;;;;;;18.65;56.31;100662.47;5071995;28;20179;-65
2022/01/07 01:32:21;;;;;;;2.60;1.77;;;;;;;18.64;56.00;100669.41;5047238;28;20172;-65
2022/01/07 01:34:46;;;;;;;3.37;1.93;;;;;;;18.61;56.01;100658.69;5053807;28;20203;-65
2022/01/07 01:37:12;;;;;;;3.53;2.00;;;;;;;18.64;55.95;100657.13;5033215;28;20234;-65
2022/01/07 01:39:37;;;;;;;2.70;1.60;;;;;;;18.63;56.29;100658.31;5033774;28;20183;-65
2022/01/07 01:42:03;;;;;;;3.27;1.70;;;;;;;18.63;56.16;100644.88;5051423;28;20172;-65
2022/01/07 01:44:29;;;;;;;3.63;2.30;;;;;;;18.60;56.44;100657.03;5022703;28;20647;-65
2022/01/07 01:46:54;;;;;;;3.53;2.07;;;;;;;18.63;56.05;100650.59;5070426;28;20420;-65
2022/01/07 01:49:20;;;;;;;3.50;1.87;;;;;;;18.61;56.11;100644.41;5071541;28;20171;-65
2022/01/07 01:51:45;;;;;;;2.80;1.70;;;;;;;18.61;56.26;100643.59;5053742;28;20236;-65
2022/01/07 01:54:11;;;;;;;3.60;1.97;;;;;;;18.63;56.25;100649.75;5071023;28;20650;-65
2022/01/07 01:56:36;;;;;;;3.20;1.80;;;;;;;18.60;56.04;100645.59;5071551;28;20167;-65
2022/01/07 01:59:02;;;;;;;3.30;1.70;;;;;;;18.60;56.34;100651.31;5070518;28;20299;-65
2022/01/07 02:01:27;;;;;;;3.50;1.90;;;;;;;18.65;55.70;100651.03;5049429;28;20187;-65
2022/01/07 02:03:53;;;;;;;2.67;1.63;;;;;;;18.60;56.48;100647.63;5053436;28;20178;-65
2022/01/07 02:06:18;;;;;;;3.77;1.80;;;;;;;18.61;56.05;100650.09;5052595;28;20198;-65
2022/01/07 02:08:44;;;;;;;2.47;1.43;;;;;;;18.63;55.99;100659.16;5070394;28;20171;-65
2022/01/07 02:11:09;;;;;;;3.63;2.03;;;;;;;18.63;55.99;100656.31;5070520;28;20171;-65
2022/01/07 02:13:35;;;;;;;5.20;1.70;;;;;;;18.63;55.88;100650.59;5073343;28;20167;-65
2022/01/07 02:16:00;;;;;;;2.90;1.80;;;;;;;18.62;56.31;100646.03;5050060;28;20200;-65
2022/01/07 02:18:25;;;;;;;4.00;2.37;;;;;;;18.57;56.30;100649.19;5061805;28;20543;-65
2022/01/07 02:20:51;;;;;;;3.20;1.97;;;;;;;18.65;55.64;100651.03;5049271;28;20171;-65
2022/01/07 02:23:17;;;;;;;2.30;1.53;;;;;;;18.60;55.87;100651.31;5052735;28;20657;-64
2022/01/07 02:25:43;;;;;;;3.17;1.77;;;;;;;18.64;55.54;100655.09;5070420;28;20247;-64
2022/01/07 02:28:09;;;;;;;2.60;1.50;;;;;;;18.62;56.07;100650.94;5052648;28;20406;-64
2022/01/07 02:30:34;;;;;;;4.00;1.90;;;;;;;18.61;55.69;100652.16;5052291;28;20425;-64
2022/01/07 02:32:59;;;;;;;3.10;1.73;;;;;;;18.60;55.87;100645.59;5070429;28;20179;-64
2022/01/07 02:35:27;;;;;;;2.67;1.90;;;;;;;18.62;55.63;100643.19;5067989;28;20225;-64
2022/01/07 02:37:53;;;;;;;4.07;2.20;;;;;;;18.63;56.00;100647.72;5071841;28;20171;-64
2022/01/07 02:40:18;;;;;;;2.90;1.60;;;;;;;18.59;55.77;100640.25;5072336;28;20429;-64
2022/01/07 02:42:44;;;;;;;2.23;1.50;;;;;;;18.57;56.09;100637.75;5072313;28;20174;-64
2022/01/07 02:45:09;;;;;;;2.70;1.70;;;;;;;18.57;55.99;100642.66;5071727;28;20231;-64
2022/01/07 02:47:49;;;;;;;4.33;1.90;;;;;;;18.59;55.87;100637.38;5061699;28;20195;-64
2022/01/07 02:50:19;;;;;;;2.43;1.33;;;;;;;18.56;55.97;100632.44;5053917;28;20163;-65
2022/01/07 02:52:44;;;;;;;2.83;1.70;;;;;;;18.57;56.12;100636.94;5070201;28;20417;-66
2022/01/07 02:55:10;;;;;;;3.30;2.20;;;;;;;18.54;55.81;100634.81;5052228;28;20955;-65
2022/01/07 02:57:36;;;;;;;2.60;1.60;;;;;;;18.55;55.99;100634.44;5070211;28;20686;-65
2022/01/07 03:00:02;;;;;;;2.97;1.57;;;;;;;18.54;56.04;100632.81;5069894;28;20214;-65
2022/01/07 03:02:27;;;;;;;2.33;1.47;;;;;;;18.54;56.25;100641.38;5062794;28;20178;-65
2022/01/07 03:04:53;;;;;;;4.17;1.60;;;;;;;18.57;55.92;100637.75;5069904;28;20467;-65
2022/01/07 03:07:18;;;;;;;2.63;1.50;;;;;;;18.57;55.92;100625.50;5068552;28;20198;-65
2022/01/07 03:09:44;;;;;;;3.30;1.23;;;;;;;18.60;55.66;100636.19;5051435;28;20183;-65
2022/01/07 03:12:09;;;;;;;2.33;1.47;;;;;;;18.59;55.87;100637.38;5069298;28;20563;-65
2022/01/07 03:14:35;;;;;;;2.63;1.63;;;;;;;18.56;55.77;100636.09;5070236;28;20199;-65
2022/01/07 03:17:00;;;;;;;2.40;1.47;;;;;;;18.56;55.96;100633.25;5069118;28;20175;-65
2022/01/07 03:19:26;;;;;;;2.70;1.60;;;;;;;18.54;56.11;100632.81;5089745;28;20193;-65
2022/01/07 03:21:51;;;;;;;2.73;1.57;;;;;;;18.55;56.08;100634.44;5089989;28;20171;-65
2022/01/07 03:24:16;;;;;;;3.00;1.70;;;;;;;18.55;55.89;100631.59;5090017;28;20170;-65
2022/01/07 03:26:42;;;;;;;3.10;1.73;;;;;;;18.53;56.03;100630.31;5089370;28;20299;-65
2022/01/07 03:29:07;;;;;;;3.10;1.87;;;;;;;18.53;56.05;100625.44;5089673;28;20200;-65
2022/01/07 03:31:33;;;;;;;3.00;1.60;;;;;;;18.53;55.60;100622.56;5070288;28;20176;-65
2022/01/07 03:33:58;;;;;;;3.73;1.87;;;;;;;18.53;56.04;100616.84;5068282;28;20171;-65
2022/01/07 03:36:24;;;;;;;4.07;1.60;;;;;;;18.52;55.96;100620.88;5058854;28;20192;-65
2022/01/07 03:38:49;;;;;;;2.50;1.63;;;;;;;18.56;55.68;100616.09;5031047;28;20187;-65
2022/01/07 03:41:14;;;;;;;2.63;1.40;;;;;;;18.53;55.94;100613.16;5049602;28;20230;-65
2022/01/07 03:43:40;;;;;;;2.80;1.90;;;;;;;18.53;56.08;100613.16;5048242;28;20198;-65
2022/01/07 03:46:05;;;;;;;2.67;1.50;;;;;;;18.51;55.96;100621.28;5049068;28;20183;-65
2022/01/07 03:48:31;;;;;;;2.37;1.57;;;;;;;18.52;56.15;100614.38;5064087;28;20228;-65
2022/01/07 03:50:56;;;;;;;2.97;1.77;;;;;;;18.49;55.92;100610.22;5088621;28;20525;-65
2022/01/07 03:53:24;;;;;;;2.37;1.30;;;;;;;18.54;55.80;100609.09;5067664;28;20171;-65
2022/01/07 03:55:50;;;;;;;3.27;1.90;;;;;;;18.54;55.73;100607.06;5078508;28;20203;-65
2022/01/07 03:58:16;;;;;;;2.33;1.40;;;;;;;18.52;55.91;100602.94;5050622;28;20912;-65
2022/01/07 04:00:41;;;;;;;1.87;1.23;;;;;;;18.51;55.90;100599.22;5069043;28;20280;-65
2022/01/07 04:03:09;;;;;;;2.27;1.37;;;;;;;18.55;55.61;100600.16;5068529;28;20642;-65
2022/01/07 04:05:34;;;;;;;3.37;1.50;;;;;;;18.55;55.88;100600.16;5069292;28;20683;-65
2022/01/07 04:08:00;;;;;;;2.90;1.80;;;;;;;18.53;55.79;100605.41;5068048;28;20479;-65
2022/01/07 04:10:25;;;;;;;2.60;1.70;;;;;;;18.54;55.77;100603.38;5068031;28;20178;-65
2022/01/07 04:12:51;;;;;;;2.83;1.77;;;;;;;18.52;56.03;100600.88;5067542;28;20167;-65
2022/01/07 04:15:17;;;;;;;3.57;1.30;;;;;;;18.51;55.84;100602.09;5070416;28;20634;-65
2022/01/07 04:17:44;;;;;;;2.97;1.80;;;;;;;18.52;55.76;100595.16;5067432;28;20545;-65
2022/01/07 04:20:11;;;;;;;2.20;1.43;;;;;;;18.53;55.83;100593.97;5068587;28;20414;-65
2022/01/07 04:22:37;;;;;;;2.20;1.30;;;;;;;18.52;55.97;100594.34;5049933;28;20413;-65
2022/01/07 04:25:04;;;;;;;4.00;1.53;;;;;;;18.51;55.67;100593.50;5069215;28;20416;-65
2022/01/07 04:27:30;;;;;;;3.67;1.87;;;;;;;18.51;55.55;100598.41;5068219;28;20212;-65
2022/01/07 04:29:56;;;;;;;3.23;1.77;;;;;;;18.51;55.85;100590.66;5050493;28;20957;-65
2022/01/07 04:32:22;;;;;;;2.70;1.60;;;;;;;18.51;55.76;100586.97;5070177;28;20413;-65
2022/01/07 04:34:47;;;;;;;2.53;1.50;;;;;;;18.51;55.84;100596.38;5068520;28;20220;-65
2022/01/07 04:37:13;;;;;;;2.50;1.30;;;;;;;18.49;55.87;100598.78;5068494;28;20530;-65
2022/01/07 04:39:38;;;;;;;3.00;1.60;;;;;;;18.52;55.86;100598.03;5049650;28;20509;-65
2022/01/07 04:42:04;;;;;;;2.90;1.50;;;;;;;18.55;55.36;100591.56;5050649;28;20182;-65
2022/01/07 04:44:29;;;;;;;2.77;1.57;;;;;;;18.54;55.43;100594.78;5068481;28;20174;-65
2022/01/07 04:46:54;;;;;;;2.80;1.50;;;;;;;18.50;55.83;100596.72;5068163;28;20179;-65
2022/01/07 04:49:20;;;;;;;2.47;1.60;;;;;;;18.53;55.66;100593.13;5068344;28;20186;-65
2022/01/07 04:51:45;;;;;;;2.70;1.50;;;;;;;18.48;55.69;100584.84;5050746;28;20194;-65
2022/01/07 04:54:11;;;;;;;2.50;1.40;;;;;;;18.48;55.97;100588.56;5049860;28;20171;-65
2022/01/07 04:56:36;;;;;;;2.67;1.60;;;;;;;18.53;55.81;100593.97;5068674;28;20199;-65
2022/01/07 04:59:02;;;;;;;2.50;1.43;;;;;;;18.53;55.60;100591.13;5067933;28;20179;-65
2022/01/07 05:01:27;;;;;;;2.40;1.40;;;;;;;18.49;55.95;100584.50;5049762;28;20213;-65
2022/01/07 05:03:52;;;;;;;2.53;1.50;;;;;;;18.54;55.60;100581.34;5068630;28;20221;-65
2022/01/07 05:06:44;;;;;;;2.73;1.90;;;;;;;18.52;55.61;100589.44;5067345;28;20183;-65
2022/01/07 05:09:03;;;;;;;2.43;1.50;;;;;;;18.50;55.55;100593.88;5067717;28;20182;-65
2022/01/07 05:11:29;;;;;;;2.67;1.50;;;;;;;18.51;55.69;100587.78;5067484;28;20417;-65
2022/01/07 05:13:54;;;;;;;2.40;1.20;;;;;;;18.54;55.76;100586.22;5067754;28;20167;-65
2022/01/07 05:16:20;;;;;;;2.23;1.30;;;;;;;18.56;55.33;100581.78;5068152;28;20610;-65
2022/01/07 05:18:45;;;;;;;2.30;1.40;;;;;;;18.52;55.73;100577.19;5082153;28;20232;-65
2022/01/07 05:21:10;;;;;;;2.53;1.40;;;;;;;18.51;55.46;100576.34;5070344;28;20201;-65
2022/01/07 05:23:36;;;;;;;2.50;1.40;;;;;;;18.53;55.54;100567.41;5088767;28;20175;-65
2022/01/07 05:26:03;;;;;;;2.17;1.20;;;;;;;18.54;55.55;100563.34;5088407;28;20170;-65
2022/01/07 05:28:28;;;;;;;2.17;1.37;;;;;;;18.50;55.68;100563.25;5053242;28;20474;-65
2022/01/07 05:30:54;;;;;;;3.27;1.60;;;;;;;18.54;55.55;100561.31;5079279;28;20824;-65
2022/01/07 05:33:19;;;;;;;1.87;1.10;;;;;;;18.52;55.52;100560.03;5062000;28;20178;-65
2022/01/07 05:35:45;;;;;;;2.37;1.50;;;;;;;18.52;55.79;100566.56;5071301;28;20531;-65
2022/01/07 05:38:10;;;;;;;2.03;1.40;;;;;;;18.52;55.83;100557.19;5053500;28;20650;-65
2022/01/07 05:40:36;;;;;;;3.00;1.43;;;;;;;18.54;55.30;100558.47;5042435;28;20180;-65
2022/01/07 05:43:01;;;;;;;3.57;1.73;;;;;;;18.54;55.80;100557.63;5051684;28;20515;-65
2022/01/07 05:45:26;;;;;;;2.47;1.57;;;;;;;18.51;55.61;100552.66;5050859;28;20238;-65
2022/01/07 05:47:52;;;;;;;2.37;1.27;;;;;;;18.51;55.62;100544.91;5051483;28;20516;-65
2022/01/07 05:50:17;;;;;;;2.63;1.40;;;;;;;18.59;55.46;100552.44;5050941;28;20172;-64
2022/01/07 05:52:43;;;;;;;3.13;1.70;;;;;;;18.56;55.41;100549.50;5051458;28;20230;-64
2022/01/07 05:55:08;;;;;;;2.93;1.67;;;;;;;18.60;55.23;100547.53;5051919;28;20207;-64
2022/01/07 05:57:35;;;;;;;2.00;1.33;;;;;;;18.52;55.41;100543.69;5055733;28;20180;-65
2022/01/07 06:00:01;;;;;;;2.47;1.50;;;;;;;18.55;55.13;100548.69;5050363;28;20231;-65
2022/01/07 06:02:26;;;;;;;2.20;1.40;;;;;;;18.52;55.37;100543.69;5049734;28;21038;-65
2022/01/07 06:04:52;;;;;;;2.50;1.50;;;;;;;18.54;55.30;100544.16;5074310;28;20163;-65
2022/01/07 06:07:17;;;;;;;2.00;1.40;;;;;;;18.60;55.24;100541.81;5090895;28;20576;-65
2022/01/07 06:09:42;;;;;;;2.57;1.67;;;;;;;18.57;55.40;100537.69;5091073;28;20167;-65
2022/01/07 06:12:09;;;;;;;4.03;1.40;;;;;;;18.54;55.43;100549.88;5091512;28;20672;-65
2022/01/07 06:14:34;;;;;;;2.20;1.30;;;;;;;18.59;55.09;100538.16;5091091;28;20166;-65
2022/01/07 06:17:00;;;;;;;2.60;1.50;;;;;;;18.61;55.09;100543.50;5089877;28;20432;-65
2022/01/07 06:19:25;;;;;;;2.20;1.20;;;;;;;18.56;55.21;100541.75;5091088;28;20545;-65
2022/01/07 06:21:51;;;;;;;2.33;1.63;;;;;;;18.55;55.55;100533.53;5091167;28;20163;-65
2022/01/07 06:24:16;;;;;;;2.70;1.70;;;;;;;18.56;55.39;100532.34;5091605;28;20177;-64
2022/01/07 06:26:42;;;;;;;2.97;1.50;;;;;;;18.56;55.63;100524.59;5072934;28;20243;-64
2022/01/07 06:29:08;;;;;;;2.40;1.60;;;;;;;18.55;55.40;100514.38;5087199;28;20170;-64
2022/01/07 06:31:33;;;;;;;2.47;1.20;;;;;;;18.53;55.30;100525.38;5061450;28;20655;-64
2022/01/07 06:33:59;;;;;;;2.80;1.50;;;;;;;18.53;55.65;100527.38;5069665;28;20417;-64
2022/01/07 06:36:25;;;;;;;3.37;1.70;;;;;;;18.55;55.38;100528.66;5066919;28;20209;-64
2022/01/07 06:38:51;;;;;;;2.73;1.53;;;;;;;18.57;55.13;100534.81;5052445;28;20651;-65
2022/01/07 06:41:16;;;;;;;2.60;1.67;;;;;;;18.55;55.15;100531.53;5070060;28;20449;-65
2022/01/07 06:43:43;;;;;;;2.03;1.30;;;;;;;18.56;55.39;100536.03;5070352;28;20174;-65
2022/01/07 06:46:09;;;;;;;2.03;1.27;;;;;;;18.60;55.04;100527.53;5069689;28;20175;-65
2022/01/07 06:48:34;;;;;;;2.07;1.30;;;;;;;18.55;55.32;100531.53;5070117;28;20528;-65
2022/01/07 06:51:00;;;;;;;3.07;1.73;;;;;;;18.58;55.36;100525.06;5070297;28;20163;-65
2022/01/07 06:53:25;;;;;;;3.17;1.70;;;;;;;18.56;55.17;100532.34;5052547;28;20190;-65
2022/01/07 06:55:51;;;;;;;2.30;1.20;;;;;;;18.53;55.31;100516.78;5070319;28;20614;-65
2022/01/07 06:58:16;;;;;;;2.60;1.53;;;;;;;18.59;55.13;100521.00;5068799;28;20295;-65
2022/01/07 07:00:42;;;;;;;2.77;1.60;;;;;;;18.52;55.36;100515.09;5048993;28;20717;-65
2022/01/07 07:03:07;;;;;;;2.17;1.33;;;;;;;18.55;55.26;100502.94;5032271;28;20183;-65
2022/01/07 07:05:32;;;;;;;3.33;1.60;;;;;;;18.53;55.34;100505.34;5049775;28;20175;-65
2022/01/07 07:07:58;;;;;;;2.20;1.30;;;;;;;18.55;55.44;100500.06;5031904;28;20172;-65
2022/01/07 07:10:23;;;;;;;2.60;1.53;;;;;;;18.52;55.53;100497.94;5050304;28;20170;-65
2022/01/07 07:12:49;;;;;;;2.10;1.30;;;;;;;18.52;55.46;100497.13;5049331;28;20262;-65
2022/01/07 07:15:14;;;;;;;2.57;1.40;;;;;;;18.56;55.26;100496.00;5031119;28;20678;-65
2022/01/07 07:17:41;;;;;;;2.60;1.40;;;;;;;18.57;55.23;100500.50;5058768;28;20170;-65
2022/01/07 07:20:07;;;;;;;3.07;1.53;;;;;;;18.52;55.38;100492.22;5070686;28;20170;-65
2022/01/07 07:22:32;;;;;;;3.37;1.93;;;;;;;18.52;55.28;100497.13;5051827;28;20425;-65
2022/01/07 07:24:58;;;;;;;2.80;2.27;;;;;;;18.53;55.37;100496.78;5069547;28;20522;-65
2022/01/07 07:27:23;;;;;;;2.60;1.47;;;;;;;18.53;55.13;100490.22;5068620;28;20233;-65
2022/01/07 07:29:49;;;;;;;2.67;1.73;;;;;;;18.54;55.45;100489.00;5069487;28;20235;-65
2022/01/07 07:32:16;;;;;;;2.20;1.30;;;;;;;18.55;55.40;100491.50;5057320;28;20184;-65
2022/01/07 07:34:58;;;;;;;3.40;1.50;;;;;;;18.54;55.36;100501.28;5069103;28;20167;-65
2022/01/07 07:37:23;;;;;;;2.23;1.30;;;;;;;18.55;55.36;100494.34;5053686;28;20428;-65
2022/01/07 07:39:49;;;;;;;2.10;1.50;;;;;;;18.53;55.56;100484.50;5069244;28;20453;-65
2022/01/07 07:42:14;;;;;;;2.73;1.33;;;;;;;18.54;55.13;100489.84;5069205;28;20175;-65
2022/01/07 07:44:40;;;;;;;2.60;1.10;;;;;;;18.57;55.19;100483.34;5051236;28;20182;-65
2022/01/07 07:47:05;;;;;;;2.30;1.17;;;;;;;18.54;55.01;100486.97;5069147;28;20528;-65
2022/01/07 07:49:31;;;;;;;3.03;1.50;;;;;;;18.53;55.45;100482.47;5034669;28;20271;-65
2022/01/07 07:51:56;;;;;;;2.67;1.20;;;;;;;18.57;55.17;100488.25;5065969;28;20170;-65
2022/01/07 07:54:21;;;;;;;2.20;1.40;;;;;;;18.60;55.43;100476.88;5065630;28;20175;-65
2022/01/07 07:56:47;;;;;;;2.37;1.47;;;;;;;18.56;55.59;100483.75;5068019;28;20229;-65
2022/01/07 07:59:12;;;;;;;2.33;1.43;;;;;;;18.52;55.31;100472.22;5033607;28;20578;-65
2022/01/07 08:01:38;;;;;;;2.30;1.40;;;;;;;18.55;55.23;100485.78;5050436;28;20547;-65
2022/01/07 08:04:04;;;;;;;2.40;1.40;;;;;;;18.54;55.49;100483.28;5055483;28;20547;-65
2022/01/07 08:06:29;;;;;;;3.40;1.80;;;;;;;18.55;55.10;100485.78;5048931;28;20202;-65
2022/01/07 08:08:55;;;;;;;4.20;1.33;;;;;;;18.59;55.05;100483.81;5048515;28;20761;-65
2022/01/07 08:11:23;;;;;;;3.07;1.40;;;;;;;18.58;55.00;100481.34;5048862;28;20180;-65
2022/01/07 08:16:32;;;;;;;2.50;1.33;;;;;;;18.56;55.42;100484.56;5048531;28;20827;-65
2022/01/07 08:18:58;;;;;;;2.43;1.27;;;;;;;18.59;55.20;100480.97;5064577;28;20421;-65
2022/01/07 08:21:25;;;;;;;2.53;1.40;;;;;;;18.55;55.13;100468.63;5050671;28;20171;-65
2022/01/07 08:23:51;;;;;;;2.73;1.50;;;;;;;18.57;55.06;100471.91;5068976;28;20194;-65
2022/01/07 08:26:16;;;;;;;2.27;1.30;;;;;;;18.56;55.11;100460.88;5068089;28;20414;-65
2022/01/07 08:28:46;;;;;;;2.23;1.40;;;;;;;18.56;55.41;100463.75;5068648;28;20202;-65
2022/01/07 08:36:30;;;;;;;2.47;1.40;;;;;;;18.58;55.05;100445.00;5068256;28;20828;-65
2022/01/07 08:38:55;;;;;;;2.13;1.30;;;;;;;18.61;54.99;100443.41;5068389;28;20428;-65
2022/01/07 08:41:22;;;;;;;2.07;1.10;;;;;;;18.55;55.35;100439.19;5041175;28;20855;-65
2022/01/07 08:43:48;;;;;;;2.60;1.33;;;;;;;18.54;55.66;100435.53;5071276;28;20642;-65
2022/01/07 08:46:13;;;;;;;3.53;1.33;;;;;;;18.59;55.04;100440.94;5088606;28;20432;-65
2022/01/07 08:48:39;;;;;;;2.37;1.33;;;;;;;18.60;55.09;100436.88;5053585;28;20289;-65
2022/01/07 08:51:05;;;;;;;2.10;1.20;;;;;;;18.59;55.16;100443.78;5088721;28;20193;-65
2022/01/07 08:53:30;;;;;;;2.10;1.27;;;;;;;18.67;54.60;100445.56;5089029;28;20541;-64
2022/01/07 08:55:56;;;;;;;2.70;1.43;;;;;;;18.66;55.33;100441.06;5088299;28;20209;-64
2022/01/07 08:58:21;;;;;;;2.73;1.53;;;;;;;18.63;54.93;100446.72;5088129;28;20638;-64
2022/01/07 09:00:47;;;;;;;2.20;1.00;;;;;;;18.64;54.94;100459.81;5050283;28;20242;-64
2022/01/07 09:03:13;;;;;;;2.17;1.20;;;;;;;18.60;55.09;100458.91;5067620;28;20536;-64
2022/01/07 09:05:38;;;;;;;2.20;1.50;;;;;;;18.60;54.98;100456.88;5068010;28;20183;-64
2022/01/07 09:08:07;;;;;;;2.20;1.30;;;;;;;18.59;55.05;100458.09;5049868;28;20708;-65
2022/01/07 09:10:32;;;;;;;2.23;1.20;;;;;;;18.58;55.04;100456.44;5071892;28;20546;-65
2022/01/07 09:12:58;;;;;;;3.60;1.00;;;;;;;18.64;55.06;100443.47;5072211;28;20413;-65
2022/01/07 09:15:23;;;;;;;2.20;1.20;;;;;;;18.56;55.19;100441.69;5071618;28;20202;-65
2022/01/07 09:17:49;;;;;;;2.23;1.40;;;;;;;18.58;55.21;100456.44;5078186;28;20182;-65
2022/01/07 09:20:15;;;;;;;2.27;1.47;;;;;;;18.58;55.13;100450.72;5077674;28;20183;-65
2022/01/07 09:22:40;;;;;;;2.27;1.33;;;;;;;18.58;55.09;100456.44;5054108;28;20780;-65
2022/01/07 09:25:06;;;;;;;4.00;1.47;;;;;;;18.59;54.96;100445.81;5071909;28;20539;-65
2022/01/07 09:27:32;;;;;;;2.50;1.40;;;;;;;18.61;55.18;100460.56;5071910;28;20181;-64
2022/01/07 09:29:57;;;;;;;1.90;1.13;;;;;;;18.57;55.34;100456.81;5072094;28;20187;-64
2022/01/07 09:32:23;;;;;;;2.43;1.17;;;;;;;18.63;55.02;100461.84;5061323;28;20789;-64
2022/01/07 09:34:48;;;;;;;2.90;1.60;;;;;;;18.60;55.09;100470.34;5053788;28;20182;-65
2022/01/07 09:37:14;;;;;;;2.37;1.30;;;;;;;18.58;55.04;100465.03;5051971;28;20179;-65
2022/01/07 09:39:39;;;;;;;3.10;1.40;;;;;;;18.65;54.75;100467.16;5073008;28;20186;-65
2022/01/07 09:42:05;;;;;;;2.10;1.30;;;;;;;18.60;54.98;100471.19;5071847;28;20194;-64
2022/01/07 09:44:30;;;;;;;2.23;1.23;;;;;;;18.61;55.16;100466.28;5071866;28;20527;-64
2022/01/07 09:46:56;;;;;;;2.70;1.53;;;;;;;18.61;55.02;100472.00;5068124;28;20236;-65
2022/01/07 09:49:21;;;;;;;2.30;1.37;;;;;;;18.63;54.89;100473.28;5072043;28;20171;-65
2022/01/07 09:51:46;;;;;;;3.27;1.20;;;;;;;18.57;55.36;100463.34;5071899;28;20178;-65
2022/01/07 09:54:12;;;;;;;4.03;1.50;;;;;;;18.57;55.32;100462.53;5071859;28;20221;-65
2022/01/07 09:56:38;;;;;;;2.77;1.57;;;;;;;18.60;54.93;100456.88;5071122;28;20268;-65
2022/01/07 09:59:05;;;;;;;2.10;1.47;;;;;;;18.57;55.07;100449.03;5053223;28;20187;-65
2022/01/07 10:01:31;;;;;;;2.73;1.50;;;;;;;18.59;55.07;100455.22;5067799;28;20815;-64
2022/01/07 10:03:56;;;;;;;2.23;1.30;;;;;;;18.57;55.04;100449.03;5071994;28;20424;-65
2022/01/07 10:06:26;;;;;;;2.43;1.40;;;;;;;18.58;55.24;100450.72;5060170;28;20432;-65
2022/01/07 10:09:11;;;;;;;2.90;1.53;;;;;;;18.60;54.92;100434.00;5091464;28;20163;-65
2022/01/07 10:11:37;;;;;;;2.13;1.30;;;;;;;18.61;55.13;100426.25;5092092;28;20421;-65
2022/01/07 10:14:13;;;;;;;3.17;1.47;;;;;;;18.57;54.98;100428.22;5073189;28;20970;-65
2022/01/07 10:16:59;;;;;;;2.10;1.10;;;;;;;18.63;54.85;100424.69;5073016;28;20706;-65
2022/01/07 10:19:40;;;;;;;2.30;1.33;;;;;;;18.61;55.01;100427.06;5090167;28;20413;-65
2022/01/07 10:22:08;;;;;;;2.10;1.23;;;;;;;18.60;55.13;100431.13;5089804;28;20416;-64
2022/01/07 10:24:57;;;;;;;1.93;1.10;;;;;;;18.60;55.18;100428.28;5091155;28;20401;-64
2022/01/07 10:27:36;;;;;;;2.30;1.40;;;;;;;18.65;54.80;100422.25;5075561;28;20433;-64
2022/01/07 10:30:09;;;;;;;4.50;1.63;;;;;;;18.66;54.92;100421.03;5083576;28;20938;-64
2022/01/07 10:32:34;;;;;;;2.60;1.40;;;;;;;18.65;54.85;100421.41;5045452;28;20461;-64
2022/01/07 10:35:05;;;;;;;1.73;1.10;;;;;;;18.64;54.85;100423.47;5069823;28;20465;-65
2022/01/07 10:37:30;;;;;;;2.30;1.30;;;;;;;18.64;54.71;100432.03;5070242;28;20193;-65
2022/01/07 10:39:56;;;;;;;2.63;1.50;;;;;;;18.62;54.86;100425.06;5070359;28;20425;-64
2022/01/07 10:42:25;;;;;;;2.70;1.50;;;;;;;18.60;55.17;100422.56;5052380;28;20171;-65
2022/01/07 10:45:00;;;;;;;2.00;1.03;;;;;;;18.66;54.84;100408.78;5053255;28;20183;-65
2022/01/07 10:47:28;;;;;;;2.40;1.33;;;;;;;18.68;54.84;100410.06;5057189;28;20533;-65
2022/01/07 10:50:32;;;;;;;2.77;1.57;;;;;;;18.66;54.66;100403.88;5050520;28;20842;-64
2022/01/07 10:53:15;;;;;;;4.17;1.50;;;;;;;18.65;54.64;100399.38;5062966;28;20464;-64
2022/01/07 10:55:41;;;;;;;3.13;1.93;;;;;;;18.44;51.10;100392.41;5066733;28;20469;-64
2022/01/07 10:58:06;;;;;;;6.17;3.07;;;;;;;17.76;48.75;100383.59;5039830;28;21009;-64
2022/01/07 11:00:36;;;;;;;6.73;3.00;;;;;;;17.58;51.08;100393.78;5062387;28;20218;-64
2022/01/07 11:03:01;;;;;;;7.13;3.97;;;;;;;17.64;49.87;100386.59;5042842;28;20191;-64
2022/01/07 11:05:26;;;;;;;6.37;3.80;;;;;;;17.62;49.11;100389.00;5037433;28;20504;-64
2022/01/07 11:07:54;;;;;;;7.03;3.53;;;;;;;17.85;46.38;100375.63;5047703;28;20187;-65
2022/01/07 11:10:19;;;;;;;9.40;4.17;;;;;;;18.27;44.50;100365.09;5030941;28;20187;-65
2022/01/07 11:12:45;;;;;;;14.57;3.90;;;;;;;18.48;44.84;100370.44;5049592;28;20481;-65
2022/01/07 11:15:11;;;;;;;13.30;4.03;;;;;;;18.63;44.94;100361.78;5031816;28;20215;-65
2022/01/07 11:17:37;;;;;;;16.67;3.87;;;;;;;18.78;44.63;100362.84;5065649;28;20270;-65
2022/01/07 11:20:03;;;;;;;17.30;3.60;;;;;;;18.99;44.50;100366.06;5083919;28;20477;-65
2022/01/07 11:22:28;;;;;;;16.87;4.10;;;;;;;19.14;45.03;100365.94;5051718;28;20436;-65
2022/01/07 11:24:57;;;;;;;11.80;3.87;;;;;;;19.37;45.11;100378.19;5051441;28;20173;-66
2022/01/07 11:27:26;;;;;;;18.03;4.00;;;;;;;19.50;44.98;100371.06;5068556;28;20183;-64